Menü       Start   X °F

Wählen Sie einen anderen Zeitraum ( Verstecke diesen Bereich )

Einheiten Zeitraum Benutzerdefinierten Bereich Direkt zu
Metrisch Englisch Beide
Tägliche Wöchentliche Monatliche Jährlich
Verwenden Sie beide Datumsselektoren für einen benutzerdefinierten Bereich
vorherige Tag
Mit diesem Datum
Tägliche Zusammenfassung für Freitag 01 März 2024
Zeit Temp. ( °F ) Taupunkt ( °F ) Wind ( mph ) Von Windböen ( mph ) Luftdruck ( in ) Feuchtigkeit( % ) Niederschlagsrate ( in )
Hoch47.3 44.6 9.9 SO ( 223/405 ) 13.7 29.59 99 -
Durchchnittswerte46.6 43.3 3.6 SO #37/70 5.7 29.55 89 -
Wenig44.8 42.1 -   0.0 29.52 84 -
Tägliche Tabellarische Details für Freitag 01 März 2024
Zeit Temp. ( °F ) Taupunkt ( °F ) Wind ( mph ) Von Windböen ( mph ) Luftdruck ( in ) Feuchtigkeit( % ) Niederschlagsrate ( in )
00:04 44.8 44.4 2.5 OSO 4.3 29.59 99 -
00:09 44.8 44.4 3.1 OSO 5.6 29.59 99 -
00:14 45.0 44.6 2.5 SO 4.3 29.59 99 -
00:19 45.0 44.6 2.5 OSO 4.3 29.59 99 -
00:24 45.1 44.6 3.7 SO 8.1 29.59 98 -
00:29 45.3 44.4 4.3 SO 5.6 29.59 97 -
00:34 45.5 44.4 5.6 SSO 10.6 29.59 96 -
00:39 45.9 43.9 3.7 SO 5.6 29.59 94 -
00:44 46.0 44.1 3.7 SO 5.6 29.59 93 -
00:49 46.0 44.1 3.1 SO 4.3 29.58 93 -
00:54 46.2 44.1 3.1 SO 3.7 29.59 93 -
00:59 46.2 44.1 3.1 SO 4.3 29.59 92 -
01:04 46.2 44.1 3.7 SSO 5.6 29.58 92 -
01:09 46.4 44.2 2.5 OSO 3.7 29.58 92 -
01:14 46.4 44.2 2.5 SO 3.7 29.58 92 -
01:19 46.4 44.2 5.0 SO 6.8 29.58 92 -
01:24 46.8 44.2 5.6 SO 6.8 29.58 91 -
01:29 46.8 44.1 6.8 SO 10.6 29.58 90 -
01:34 46.8 44.1 3.7 OSO 5.6 29.58 90 -
01:39 46.9 44.1 3.7 SSO 6.8 29.58 90 -
01:44 46.9 43.9 3.1 OSO 5.6 29.57 89 -
01:49 46.9 44.2 3.1 SO 4.3 29.57 90 -
01:54 46.9 43.9 3.7 SO 4.3 29.58 89 -
01:59 46.9 43.9 3.1 SO 4.3 29.58 89 -
02:04 46.9 43.9 2.5 SO 3.7 29.57 89 -
02:09 46.8 43.7 3.7 SO 4.3 29.57 89 -
02:14 46.8 43.7 3.7 SO 4.3 29.57 89 -
02:19 46.8 43.7 3.7 SO 5.6 29.57 89 -
02:24 46.8 43.7 3.7 SO 5.6 29.57 89 -
02:29 46.8 43.7 3.7 OSO 6.8 29.56 89 -
02:34 46.9 43.5 3.7 SO 5.6 29.56 88 -
02:39 46.9 43.5 5.0 SO 6.8 29.56 88 -
02:44 46.9 43.5 3.7 OSO 6.8 29.56 88 -
02:49 46.9 43.5 2.5 SO 4.3 29.55 88 -
02:54 46.9 43.5 3.7 SO 4.3 29.55 88 -
02:59 47.1 43.5 5.0 SO 6.8 29.55 88 -
03:04 47.1 43.7 5.6 OSO 10.6 29.55 88 -
03:09 47.1 43.5 5.0 SSO 8.1 29.55 87 -
03:14 47.1 43.5 5.6 OSO 9.3 29.55 87 -
03:19 47.1 43.5 4.3 SO 5.6 29.54 87 -
03:24 47.3 43.3 3.7 OSO 5.6 29.55 86 -
03:29 47.3 43.3 4.3 OSO 5.6 29.54 86 -
03:34 47.3 43.3 6.2 SSO 9.3 29.54 86 -
03:39 47.3 43.0 5.0 OSO 8.1 29.54 85 -
03:43 47.3 43.0 3.7 OSO 6.8 29.53 85 -
03:54 47.3 43.0 6.8 SSO 10.6 29.53 85 -
03:59 47.3 43.0 5.0 SO 8.1 29.53 85 -
04:04 47.3 43.0 5.6 OSO 9.3 29.53 85 -
04:09 47.3 43.0 6.2 SO 9.3 29.53 85 -
04:14 47.3 42.8 6.8 SO 9.3 29.53 85 -
04:19 47.3 42.6 6.2 SO 8.1 29.52 84 -
04:24 47.1 42.4 9.9 SSO 13.7 29.53 84 -
04:29 46.9 42.6 5.0 SO 6.8 29.53 85 -
04:34 46.9 42.6 0.6 SO 2.5 29.53 85 -
04:39 46.9 42.6 0.6 OSO 2.5 29.53 85 -
04:44 46.9 42.4 3.1 Osten 5.6 29.53 85 -
04:49 46.9 42.3 0.6 SO 2.5 29.53 84 -
04:54 46.9 42.3 3.7 SO 4.3 29.52 84 -
04:59 46.8 42.4 1.9 SO 3.7 29.53 85 -
05:04 46.6 42.3 3.1 Süden 5.6 29.53 85 -
05:09 46.4 42.1 3.1 SO 4.3 29.52 85 -
05:14 46.4 42.4   Windstille   29.53 86 -
05:19 46.0 42.1 0.6 SO 2.5 29.52 86 -
05:24 46.0 42.1 3.1 Osten 5.6 29.53 86 -
05:29 46.2 42.3   Windstille   29.52 86 -
05:34 46.2 42.3 0.6 Süden 2.5 29.52 86 -
05:39 46.2 42.3 0.6 ONO 2.5 29.52 86 -
05:44 46.2 42.3   Windstille   29.52 86 -
05:49 46.2 42.3 2.5 SSO 6.8 29.52 86 -
05:54 46.2 42.3   Windstille 1.2 29.52 86 -

Laden Sie Ihre Kopie dieses Datensatzes herunter  von WetterUnterground

Unsere Wetterdaten wie bei Weather Underground

Flag Counter